Time;durP1;ratioP1;P1;durP2;ratioP2;P2;SDS_P1;SDS_P2;PMS_P1;PMS_P2;Temp;Humidity;BMP_temperature;BMP_pressure;BME280_temperature;BME280_humidity;BME280_pressure;Samples;Min_cycle;Max_cycle;Signal;HPM_P1;HPM_P2
2022/09/14 00:02:03;;;;;;;8.80;2.80;;;15.80;1.00;;;;;;6076685;23;20437;-78
2022/09/14 00:04:30;;;;;;;8.03;2.60;;;15.80;1.00;;;;;;6074385;23;20512;-79
2022/09/14 00:07:03;;;;;;;8.57;3.00;;;15.80;1.00;;;;;;6074818;23;20425;-79
2022/09/14 00:09:35;;;;;;;6.97;2.77;;;15.80;1.00;;;;;;6075085;23;20421;-78
2022/09/14 00:12:02;;;;;;;8.33;3.03;;;15.70;1.00;;;;;;6076493;23;20417;-78
2022/09/14 00:14:29;;;;;;;7.07;2.40;;;15.70;1.00;;;;;;6074108;23;20433;-79
2022/09/14 00:17:03;;;;;;;8.83;3.10;;;15.70;1.00;;;;;;6074575;23;20421;-79
2022/09/14 00:19:32;;;;;;;7.83;2.77;;;15.60;1.00;;;;;;6072779;23;20429;-80
2022/09/14 00:22:02;;;;;;;11.43;3.50;;;15.60;1.00;;;;;;6071653;23;20524;-79
2022/09/14 00:24:30;;;;;;;7.37;2.73;;;15.50;1.00;;;;;;6060469;23;20433;-79
2022/09/14 00:27:05;;;;;;;9.93;3.30;;;15.40;1.00;;;;;;6075427;23;21076;-79
2022/09/14 00:29:33;;;;;;;9.07;2.53;;;15.40;1.00;;;;;;6075317;23;20485;-79
2022/09/14 00:32:02;;;;;;;6.97;2.73;;;15.40;1.00;;;;;;6075522;23;20492;-78
2022/09/14 00:34:39;;;;;;;10.83;3.30;;;15.30;1.00;;;;;;6075421;23;20440;-79
2022/09/14 00:37:06;;;;;;;10.23;2.90;;;15.30;1.00;;;;;;6075096;23;20456;-77
2022/09/14 00:39:37;;;;;;;9.27;3.10;;;15.20;1.00;;;;;;6073332;23;20426;-78
2022/09/14 00:42:05;;;;;;;7.90;2.97;;;15.20;1.00;;;;;;6074579;23;20917;-79
2022/09/14 00:45:01;;;;;;;7.50;2.97;;;15.20;1.00;;;;;;6074376;23;20508;-80
2022/09/14 00:47:55;;;;;;;7.70;2.50;;;15.10;1.00;;;;;;6074510;23;20504;-79
2022/09/14 00:50:25;;;;;;;8.57;3.30;;;15.20;1.00;;;;;;6074703;23;20426;-78
2022/09/14 00:52:55;;;;;;;9.03;2.83;;;15.10;1.00;;;;;;6074774;23;20428;-78
2022/09/14 00:55:24;;;;;;;8.03;2.60;;;15.00;1.00;;;;;;6074016;23;20552;-78
2022/09/14 00:57:53;;;;;;;7.60;3.03;;;15.00;1.00;;;;;;6071879;23;20454;-78
2022/09/14 01:00:28;;;;;;;9.17;2.90;;;14.90;1.00;;;;;;6047995;23;20524;-78
2022/09/14 01:02:57;;;;;;;9.40;3.20;;;15.00;1.00;;;;;;6074984;23;20429;-79
2022/09/14 01:05:34;;;;;;;9.17;2.43;;;15.00;1.00;;;;;;6069749;23;20493;-79
2022/09/14 01:08:27;;;;;;;9.40;3.20;;;14.90;1.00;;;;;;6074713;23;20454;-78
2022/09/14 01:11:14;;;;;;;8.00;2.70;;;14.90;1.00;;;;;;6072395;23;20456;-79
2022/09/14 01:13:55;;;;;;;9.60;3.20;;;14.90;1.00;;;;;;6072408;23;20440;-78
2022/09/14 01:16:31;;;;;;;6.83;2.90;;;14.80;1.00;;;;;;6072038;23;20443;-80
2022/09/14 01:19:07;;;;;;;10.20;3.07;;;14.80;1.00;;;;;;6071614;23;20461;-80
2022/09/14 01:21:37;;;;;;;9.77;3.30;;;14.80;1.00;;;;;;6073757;23;20448;-79
2022/09/14 01:24:16;;;;;;;10.57;3.07;;;14.80;1.00;;;;;;6046642;23;20552;-80
2022/09/14 01:27:11;;;;;;;9.87;3.10;;;14.70;1.00;;;;;;6074495;23;20433;-79
2022/09/14 01:29:44;;;;;;;11.47;3.13;;;14.70;1.00;;;;;;6069129;23;20420;-79
2022/09/14 01:32:27;;;;;;;9.93;2.90;;;14.70;1.00;;;;;;6073731;23;20425;-79
2022/09/14 01:35:03;;;;;;;8.10;2.90;;;14.70;1.00;;;;;;6073009;23;20517;-80
2022/09/14 01:37:47;;;;;;;9.30;2.30;;;14.60;1.00;;;;;;6073055;23;20443;-80
2022/09/14 01:40:25;;;;;;;6.80;2.43;;;14.60;1.00;;;;;;6074683;23;20421;-79
2022/09/14 01:42:59;;;;;;;5.87;2.57;;;14.60;1.00;;;;;;6074808;23;20505;-79
2022/09/14 01:45:33;;;;;;;6.87;2.40;;;14.50;1.00;;;;;;6076486;23;20393;-82
2022/09/14 01:48:07;;;;;;;10.60;3.10;;;14.60;1.00;;;;;;6077056;23;20414;-83
2022/09/14 01:50:40;;;;;;;8.10;2.43;;;14.50;1.00;;;;;;6078068;23;20393;-83
2022/09/14 01:53:12;;;;;;;10.63;2.80;;;14.50;1.00;;;;;;6080318;23;20428;-84
2022/09/14 01:55:44;;;;;;;9.10;2.83;;;14.50;1.00;;;;;;6077299;23;20485;-83
2022/09/14 01:58:21;;;;;;;9.20;3.00;;;14.40;1.00;;;;;;6077664;23;20454;-82
2022/09/14 02:00:51;;;;;;;7.40;2.50;;;14.40;1.00;;;;;;6076500;23;20421;-82
2022/09/14 02:03:22;;;;;;;7.57;2.60;;;14.40;1.00;;;;;;6075686;23;20393;-82
2022/09/14 02:05:55;;;;;;;7.13;2.70;;;14.40;1.00;;;;;;6076170;23;20489;-83
2022/09/14 02:08:24;;;;;;;9.30;2.27;;;14.40;1.00;;;;;;6046849;23;20444;-82
2022/09/14 02:10:51;;;;;;;8.00;2.50;;;14.40;1.00;;;;;;6049357;23;20399;-82
2022/09/14 02:13:20;;;;;;;9.53;2.90;;;14.50;1.00;;;;;;6049833;23;20509;-82
2022/09/14 02:15:48;;;;;;;7.70;2.37;;;14.40;1.00;;;;;;6024156;23;20445;-82
2022/09/14 02:18:15;;;;;;;7.00;2.60;;;14.40;1.00;;;;;;6046749;23;20441;-82
2022/09/14 02:20:48;;;;;;;9.23;3.10;;;14.40;1.00;;;;;;6039906;23;20444;-83
2022/09/14 02:23:14;;;;;;;9.90;3.23;;;14.40;1.00;;;;;;6067614;23;20422;-83
2022/09/14 02:25:41;;;;;;;7.87;2.80;;;14.40;1.00;;;;;;6049917;23;20445;-83
2022/09/14 02:28:08;;;;;;;7.63;2.90;;;14.40;1.00;;;;;;6049372;23;20474;-83
2022/09/14 02:30:48;;;;;;;7.00;3.00;;;14.30;1.00;;;;;;6048513;23;20418;-83
2022/09/14 02:33:20;;;;;;;7.80;3.07;;;14.30;1.00;;;;;;6048703;23;21282;-83
2022/09/14 02:35:52;;;;;;;8.73;3.10;;;14.30;1.00;;;;;;6036395;23;20425;-82
2022/09/14 02:38:28;;;;;;;6.70;3.30;;;14.30;1.00;;;;;;6033929;23;20430;-82
2022/09/14 02:41:00;;;;;;;7.50;3.00;;;14.30;1.00;;;;;;6031799;23;20419;-83
2022/09/14 02:43:40;;;;;;;8.47;3.30;;;14.30;1.00;;;;;;6032829;23;20916;-82
2022/09/14 02:46:17;;;;;;;7.97;3.10;;;14.30;1.00;;;;;;6037569;23;20506;-82
2022/09/14 02:48:50;;;;;;;10.67;4.17;;;14.30;1.00;;;;;;6035344;23;20480;-83
2022/09/14 02:51:25;;;;;;;9.87;3.63;;;14.20;1.00;;;;;;6036721;23;20400;-82
2022/09/14 02:53:58;;;;;;;7.30;3.53;;;14.20;1.00;;;;;;6031250;23;20419;-83
2022/09/14 02:56:28;;;;;;;9.33;3.30;;;14.10;1.00;;;;;;6034316;23;20442;-83
2022/09/14 02:58:55;;;;;;;12.50;3.60;;;14.20;1.00;;;;;;6048288;23;20442;-82
2022/09/14 03:01:25;;;;;;;8.13;3.17;;;14.20;1.00;;;;;;6052257;23;20383;-83
2022/09/14 03:03:52;;;;;;;9.70;3.50;;;14.10;1.00;;;;;;6049152;23;20426;-82
2022/09/14 03:06:19;;;;;;;9.97;3.43;;;14.10;1.00;;;;;;6048981;23;20434;-82
2022/09/14 03:08:46;;;;;;;13.80;3.47;;;14.10;1.00;;;;;;6072059;23;20511;-82
2022/09/14 03:11:13;;;;;;;10.00;3.53;;;14.10;1.00;;;;;;6077507;23;20421;-82
2022/09/14 03:13:41;;;;;;;9.47;3.20;;;14.10;1.00;;;;;;6079788;23;20513;-82
2022/09/14 03:16:09;;;;;;;10.30;3.70;;;14.10;1.00;;;;;;6078145;23;20429;-83
2022/09/14 03:18:39;;;;;;;8.20;3.30;;;14.10;1.00;;;;;;6079704;23;21160;-82
2022/09/14 03:21:08;;;;;;;10.83;3.33;;;14.10;1.00;;;;;;6079553;23;20421;-82
2022/09/14 03:23:40;;;;;;;7.80;3.80;;;14.10;1.00;;;;;;6080098;23;20769;-83
2022/09/14 03:26:09;;;;;;;12.73;4.77;;;14.10;1.00;;;;;;6081772;23;20405;-81
2022/09/14 03:28:36;;;;;;;12.83;5.60;;;14.10;1.00;;;;;;6079687;23;20473;-83
2022/09/14 03:31:04;;;;;;;10.20;3.30;;;14.10;1.00;;;;;;6079065;23;20389;-83
2022/09/14 03:33:32;;;;;;;8.13;3.40;;;14.10;1.00;;;;;;6079216;23;20394;-82
2022/09/14 03:36:11;;;;;;;9.63;3.23;;;14.10;1.00;;;;;;6078220;23;20409;-83
2022/09/14 03:38:39;;;;;;;11.77;4.13;;;14.10;1.00;;;;;;6077229;23;20417;-81
2022/09/14 03:41:09;;;;;;;9.70;3.00;;;14.10;1.00;;;;;;6079089;23;20445;-82
2022/09/14 03:43:36;;;;;;;11.70;4.10;;;14.10;1.00;;;;;;6078254;23;20428;-83
2022/09/14 03:46:05;;;;;;;14.77;6.10;;;14.00;1.00;;;;;;6081843;23;20377;-83
2022/09/14 03:48:32;;;;;;;9.23;3.17;;;14.10;1.00;;;;;;6080494;23;20760;-82
2022/09/14 03:51:06;;;;;;;8.93;3.63;;;14.10;1.00;;;;;;6080700;23;20394;-82
2022/09/14 03:53:35;;;;;;;8.00;3.50;;;14.10;1.00;;;;;;6079287;23;20402;-82
2022/09/14 03:56:07;;;;;;;11.50;3.60;;;14.00;1.00;;;;;;6080715;23;20429;-83
2022/09/14 03:58:34;;;;;;;9.47;3.63;;;14.00;1.00;;;;;;6054904;23;20437;-83
2022/09/14 04:01:05;;;;;;;9.27;3.30;;;14.00;1.00;;;;;;6080302;23;20913;-83
2022/09/14 04:03:32;;;;;;;9.87;3.43;;;14.00;1.00;;;;;;6076184;23;20436;-82
2022/09/14 04:06:06;;;;;;;9.70;4.00;;;14.00;1.00;;;;;;6078598;23;20445;-82
2022/09/14 04:08:40;;;;;;;10.80;4.70;;;14.00;1.00;;;;;;6079112;23;20460;-83
2022/09/14 04:11:08;;;;;;;11.33;5.20;;;14.00;1.00;;;;;;6080104;23;20378;-83
2022/09/14 04:13:36;;;;;;;11.13;4.30;;;14.00;1.00;;;;;;6083074;23;20417;-83
2022/09/14 04:16:03;;;;;;;13.07;3.93;;;14.00;1.00;;;;;;6081592;23;20867;-83
2022/09/14 04:18:32;;;;;;;11.30;4.20;;;14.00;1.00;;;;;;6078297;23;20508;-83
2022/09/14 04:21:04;;;;;;;10.40;4.20;;;14.00;1.00;;;;;;6081284;23;20432;-83
2022/09/14 04:23:34;;;;;;;11.20;4.27;;;13.90;1.00;;;;;;6081720;23;20433;-83
2022/09/14 04:26:11;;;;;;;7.33;3.80;;;13.90;1.00;;;;;;6082712;23;20438;-84
2022/09/14 04:28:41;;;;;;;10.37;4.73;;;13.90;1.00;;;;;;6080202;23;20490;-82
2022/09/14 04:31:12;;;;;;;17.20;5.23;;;13.80;1.00;;;;;;6066664;23;20425;-80
2022/09/14 04:33:56;;;;;;;9.50;5.13;;;13.80;1.00;;;;;;6080434;23;20425;-80
2022/09/14 04:36:27;;;;;;;11.13;4.53;;;13.80;1.00;;;;;;6063725;23;20444;-81
2022/09/14 04:38:58;;;;;;;10.27;4.37;;;13.90;1.00;;;;;;6078847;23;20437;-82
2022/09/14 04:41:26;;;;;;;7.13;4.50;;;13.90;1.00;;;;;;6078923;23;20449;-83
2022/09/14 04:43:56;;;;;;;10.00;4.70;;;14.00;1.00;;;;;;6081313;23;20533;-83
2022/09/14 04:46:25;;;;;;;13.33;9.20;;;14.00;1.00;;;;;;6081918;23;20501;-84
2022/09/14 04:48:54;;;;;;;10.40;3.87;;;14.00;1.00;;;;;;6079026;23;20433;-82
2022/09/14 04:51:27;;;;;;;10.97;4.07;;;14.00;1.00;;;;;;6072364;23;21131;-82
2022/09/14 04:53:56;;;;;;;12.07;5.03;;;14.00;1.00;;;;;;6051726;23;20409;-87
2022/09/14 04:56:24;;;;;;;12.63;3.63;;;14.00;1.00;;;;;;6076801;23;20433;-82
2022/09/14 04:58:57;;;;;;;11.03;4.17;;;14.00;1.00;;;;;;6076769;23;20673;-82
2022/09/14 05:01:28;;;;;;;13.63;4.73;;;14.00;1.00;;;;;;6077615;23;20436;-82
2022/09/14 05:03:55;;;;;;;7.10;3.80;;;14.00;1.00;;;;;;6081146;23;21190;-84
2022/09/14 05:06:28;;;;;;;9.93;5.13;;;14.00;1.00;;;;;;6056220;23;20604;-83
2022/09/14 05:08:56;;;;;;;8.73;4.20;;;14.10;1.00;;;;;;6082000;23;21462;-82
2022/09/14 05:11:26;;;;;;;8.83;4.10;;;14.10;1.00;;;;;;6075343;23;21736;-82
2022/09/14 05:13:55;;;;;;;11.00;6.00;;;14.20;1.00;;;;;;6077546;23;20822;-83
2022/09/14 05:16:24;;;;;;;7.83;4.13;;;14.30;1.00;;;;;;6077604;23;20512;-82
2022/09/14 05:18:53;;;;;;;11.27;5.60;;;14.30;1.00;;;;;;6075747;23;20448;-80
2022/09/14 05:21:21;;;;;;;10.70;4.40;;;14.40;1.00;;;;;;6074398;23;20682;-80
2022/09/14 05:23:55;;;;;;;10.90;3.93;;;14.40;1.00;;;;;;6074581;23;20429;-82
2022/09/14 05:26:28;;;;;;;9.50;4.77;;;14.40;1.00;;;;;;6075537;23;20522;-79
2022/09/14 05:29:00;;;;;;;9.67;5.33;;;14.50;1.00;;;;;;6076407;23;20436;-76
2022/09/14 05:31:36;;;;;;;10.00;4.07;;;14.50;1.00;;;;;;6073289;23;20814;-81
2022/09/14 05:34:05;;;;;;;10.43;4.80;;;14.60;1.00;;;;;;6078586;23;20504;-82
2022/09/14 05:36:35;;;;;;;10.50;4.60;;;14.70;1.00;;;;;;6085738;23;20999;-80
2022/09/14 05:39:05;;;;;;;12.57;5.17;;;14.70;1.00;;;;;;6079504;23;20971;-79
2022/09/14 05:41:33;;;;;;;10.23;4.27;;;14.70;1.00;;;;;;6051687;23;20437;-79
2022/09/14 05:44:01;;;;;;;10.50;4.40;;;14.70;1.00;;;;;;6074920;23;20429;-81
2022/09/14 05:46:36;;;;;;;12.47;5.03;;;14.90;1.00;;;;;;6073249;23;20444;-80
2022/09/14 05:49:05;;;;;;;11.40;4.40;;;14.90;1.00;;;;;;6071899;23;20461;-78
2022/09/14 05:51:32;;;;;;;8.63;3.73;;;14.90;1.00;;;;;;6077109;23;21033;-80
2022/09/14 05:54:08;;;;;;;10.70;7.20;;;15.00;1.00;;;;;;6076824;23;20552;-78
2022/09/14 05:56:37;;;;;;;13.70;5.90;;;15.00;1.00;;;;;;6076589;23;20433;-81
2022/09/14 05:59:06;;;;;;;12.90;5.10;;;15.10;1.00;;;;;;6079023;23;20480;-85
2022/09/14 06:01:35;;;;;;;9.90;4.33;;;15.10;1.00;;;;;;6077827;23;20501;-77
2022/09/14 06:04:05;;;;;;;11.60;4.70;;;15.20;1.00;;;;;;6074854;23;20425;-78
2022/09/14 06:06:33;;;;;;;17.27;6.60;;;15.20;1.00;;;;;;6073935;23;20429;-81
2022/09/14 06:09:07;;;;;;;13.43;4.10;;;15.30;1.00;;;;;;6075136;23;20820;-79
2022/09/14 06:11:36;;;;;;;12.80;5.40;;;15.30;1.00;;;;;;6076459;23;20491;-78
2022/09/14 06:14:06;;;;;;;9.30;4.57;;;15.30;1.00;;;;;;6075607;23;20425;-79
2022/09/14 06:16:34;;;;;;;12.20;4.23;;;15.30;1.00;;;;;;6076594;23;20437;-79
2022/09/14 06:19:02;;;;;;;13.90;4.33;;;15.30;1.00;;;;;;6077055;23;20421;-80
2022/09/14 06:21:32;;;;;;;14.00;3.83;;;15.40;1.00;;;;;;6075933;23;20390;-80
2022/09/14 06:24:09;;;;;;;9.40;3.40;;;15.50;1.00;;;;;;6072163;23;20429;-79
2022/09/14 06:26:37;;;;;;;9.00;3.93;;;15.50;1.00;;;;;;6072951;23;20433;-79
2022/09/14 06:29:04;;;;;;;12.83;4.83;;;15.60;1.00;;;;;;6076168;23;20445;-81
2022/09/14 06:31:32;;;;;;;11.10;6.13;;;15.70;1.00;;;;;;6075029;23;20465;-81
2022/09/14 06:34:02;;;;;;;11.40;4.13;;;15.70;1.00;;;;;;6075807;23;20428;-79
2022/09/14 06:36:29;;;;;;;15.40;7.40;;;15.80;1.00;;;;;;6060370;23;20434;-80
2022/09/14 06:38:58;;;;;;;11.93;5.57;;;15.80;1.00;;;;;;6074531;23;20437;-81
2022/09/14 06:41:29;;;;;;;11.33;4.00;;;15.90;1.00;;;;;;6072256;23;20422;-79
2022/09/14 06:44:03;;;;;;;13.20;4.47;;;15.80;1.00;;;;;;6061321;23;20830;-78
2022/09/14 06:46:33;;;;;;;10.70;4.00;;;15.90;1.00;;;;;;6077484;23;20473;-80
2022/09/14 06:49:07;;;;;;;9.40;4.10;;;16.00;1.00;;;;;;6077641;23;20432;-81
2022/09/14 06:51:46;;;;;;;8.43;3.60;;;16.10;1.00;;;;;;6077133;23;20731;-79
2022/09/14 06:54:17;;;;;;;10.97;3.60;;;16.20;1.00;;;;;;6081206;23;20393;-80
2022/09/14 06:56:46;;;;;;;8.10;3.50;;;16.30;1.00;;;;;;6078860;23;20448;-80
2022/09/14 06:59:17;;;;;;;9.03;3.63;;;16.40;1.00;;;;;;6082472;23;20741;-79
2022/09/14 07:01:45;;;;;;;10.30;3.33;;;16.40;1.00;;;;;;6079842;23;20425;-79
2022/09/14 07:04:35;;;;;;;15.60;4.43;;;16.60;1.00;;;;;;6080516;23;20484;-80
2022/09/14 07:07:16;;;;;;;14.63;4.70;;;16.80;1.00;;;;;;6085505;23;20426;-80
2022/09/14 07:09:47;;;;;;;9.57;3.90;;;17.00;1.00;;;;;;6026494;23;20444;-80
2022/09/14 07:12:23;;;;;;;9.90;4.10;;;17.10;1.00;;;;;;6028078;23;21007;-81
2022/09/14 07:15:03;;;;;;;11.17;4.40;;;17.20;1.00;;;;;;6022754;23;20467;-83
2022/09/14 07:17:35;;;;;;;10.40;4.07;;;17.30;1.00;;;;;;6024988;23;20458;-81
2022/09/14 07:20:06;;;;;;;14.23;4.97;;;17.30;1.00;;;;;;6025906;23;20911;-82
2022/09/14 07:22:34;;;;;;;10.77;4.40;;;17.30;1.00;;;;;;6028073;23;20411;-82
2022/09/14 07:25:04;;;;;;;13.23;5.50;;;17.20;1.00;;;;;;6025622;23;20447;-81
2022/09/14 07:27:34;;;;;;;9.20;3.90;;;17.20;1.00;;;;;;6027998;23;20711;-80
2022/09/14 07:30:26;;;;;;;10.10;3.70;;;17.10;1.00;;;;;;6026858;23;20435;-82
2022/09/14 07:33:05;;;;;;;12.77;4.00;;;17.20;1.00;;;;;;6031314;23;20399;-85
2022/09/14 07:35:37;;;;;;;8.50;3.67;;;17.30;1.00;;;;;;6028127;23;20504;-84
2022/09/14 07:38:04;;;;;;;14.30;4.50;;;17.50;1.00;;;;;;6026977;23;20415;-80
2022/09/14 07:40:34;;;;;;;11.60;4.63;;;17.60;1.00;;;;;;6025720;23;20469;-83
2022/09/14 07:43:07;;;;;;;11.30;3.43;;;17.70;1.00;;;;;;6023113;23;20423;-83
2022/09/14 07:45:46;;;;;;;19.00;7.87;;;17.60;1.00;;;;;;6024120;23;20427;-81
2022/09/14 07:48:16;;;;;;;12.63;7.00;;;17.70;1.00;;;;;;6025346;23;20803;-80
2022/09/14 07:50:43;;;;;;;9.53;3.00;;;17.70;1.00;;;;;;6022060;23;20514;-81
2022/09/14 07:53:15;;;;;;;10.07;3.97;;;17.80;1.00;;;;;;6024273;23;20426;-80
2022/09/14 07:55:44;;;;;;;8.37;3.10;;;17.90;1.00;;;;;;6023102;23;20443;-81
2022/09/14 07:58:14;;;;;;;11.43;3.03;;;18.10;1.00;;;;;;6025554;23;20434;-79
2022/09/14 08:00:44;;;;;;;11.33;4.37;;;18.40;1.00;;;;;;6024784;23;20547;-81
2022/09/14 08:03:16;;;;;;;10.70;4.20;;;18.60;1.00;;;;;;6024389;23;20391;-81
2022/09/14 08:05:45;;;;;;;10.97;3.00;;;18.70;1.00;;;;;;6020300;23;20427;-81
2022/09/14 08:08:16;;;;;;;11.47;3.17;;;18.80;1.00;;;;;;6038229;23;20406;-82
2022/09/14 08:10:45;;;;;;;10.33;3.17;;;18.90;1.00;;;;;;6052505;23;20404;-84
2022/09/14 08:13:14;;;;;;;14.47;4.37;;;18.90;1.00;;;;;;6052592;23;20622;-85
2022/09/14 08:15:47;;;;;;;10.30;4.10;;;18.90;1.00;;;;;;6051808;23;20426;-84
2022/09/14 08:18:16;;;;;;;12.60;3.80;;;19.00;1.00;;;;;;6054109;23;20394;-82
2022/09/14 08:20:43;;;;;;;8.50;4.13;;;19.10;1.00;;;;;;6038428;23;20506;-81
2022/09/14 08:23:17;;;;;;;8.73;3.30;;;19.30;1.00;;;;;;6050146;23;20405;-81
2022/09/14 08:25:57;;;;;;;10.40;4.10;;;19.40;1.00;;;;;;6050441;23;20994;-80
2022/09/14 08:28:24;;;;;;;11.03;3.00;;;19.50;1.00;;;;;;6049688;23;21045;-86
2022/09/14 08:31:17;;;;;;;16.53;4.53;;;19.60;1.00;;;;;;6053112;23;20438;-81
2022/09/14 08:33:55;;;;;;;8.07;3.30;;;19.70;1.00;;;;;;6038520;23;20446;-82
2022/09/14 08:36:27;;;;;;;9.77;3.10;;;19.80;1.00;;;;;;6050995;23;20656;-82
2022/09/14 08:38:57;;;;;;;11.40;3.30;;;19.80;1.00;;;;;;6052728;23;20470;-78
2022/09/14 08:41:34;;;;;;;10.20;3.00;;;19.80;1.00;;;;;;6051839;23;20430;-78
2022/09/14 08:44:25;;;;;;;8.77;3.23;;;20.00;1.00;;;;;;6051521;23;20410;-78
2022/09/14 08:47:03;;;;;;;10.97;2.40;;;20.20;1.00;;;;;;6048794;23;20884;-77
2022/09/14 08:49:55;;;;;;;10.90;3.10;;;20.50;1.00;;;;;;6047274;23;20394;-76
2022/09/14 08:52:27;;;;;;;9.77;2.87;;;20.70;1.00;;;;;;6049330;23;20453;-76
2022/09/14 08:54:57;;;;;;;13.47;2.83;;;20.80;1.00;;;;;;6050665;23;20441;-79
2022/09/14 08:57:35;;;;;;;9.17;3.20;;;21.00;1.00;;;;;;6052157;23;20949;-77
2022/09/14 09:00:09;;;;;;;8.70;2.37;;;21.10;1.00;;;;;;6051405;23;20552;-81
2022/09/14 09:03:37;;;;;;;10.20;2.77;;;21.10;1.00;;;;;;6044769;23;20501;-79
2022/09/14 09:06:28;;;;;;;7.20;2.30;;;20.80;1.00;;;;;;5906829;24;20422;-78
2022/09/14 09:09:04;;;;;;;12.57;3.50;;;20.60;1.00;;;;;;6044336;23;20434;-79
2022/09/14 09:11:47;;;;;;;8.20;2.73;;;20.40;1.00;;;;;;6045829;23;20434;-78
2022/09/14 09:14:24;;;;;;;6.20;2.10;;;20.20;1.00;;;;;;6047488;23;20458;-78
2022/09/14 09:16:55;;;;;;;8.60;3.13;;;20.10;1.00;;;;;;6052883;23;20394;-80
2022/09/14 09:19:32;;;;;;;11.10;4.17;;;20.10;1.00;;;;;;6053708;23;21041;-82
2022/09/14 09:22:02;;;;;;;10.53;3.20;;;20.20;1.00;;;;;;6054733;23;20422;-79
2022/09/14 09:24:36;;;;;;;7.40;2.70;;;20.30;1.00;;;;;;6054600;23;20442;-82
2022/09/14 09:27:16;;;;;;;10.30;3.13;;;20.50;1.00;;;;;;6059005;23;20437;-82
2022/09/14 09:29:46;;;;;;;8.30;2.60;;;20.70;1.00;;;;;;6051308;23;20438;-82
2022/09/14 09:32:19;;;;;;;7.90;2.40;;;20.80;1.00;;;;;;6054835;23;20461;-79
2022/09/14 09:34:48;;;;;;;9.47;3.50;;;20.80;1.00;;;;;;6053803;23;20466;-79
2022/09/14 09:37:19;;;;;;;7.20;2.53;;;21.00;1.00;;;;;;6051663;23;20426;-77
2022/09/14 09:39:46;;;;;;;7.90;2.70;;;21.10;1.00;;;;;;6053099;23;20538;-82
2022/09/14 09:42:26;;;;;;;9.10;3.43;;;21.40;1.00;;;;;;6058037;23;21226;-82
2022/09/14 09:44:57;;;;;;;8.73;2.23;;;21.60;1.00;;;;;;6047922;23;20414;-76
2022/09/14 09:47:42;;;;;;;10.70;3.30;;;22.20;1.00;;;;;;6033389;23;20444;-77
2022/09/14 09:50:22;;;;;;;8.00;2.13;;;23.00;1.00;;;;;;6046112;23;20422;-78
2022/09/14 09:52:55;;;;;;;9.93;3.00;;;24.40;1.00;;;;;;6001588;23;20426;-77
2022/09/14 09:55:25;;;;;;;7.93;2.70;;;25.10;1.00;;;;;;6034858;23;21087;-78
2022/09/14 09:57:56;;;;;;;8.47;2.60;;;24.90;1.00;;;;;;6045363;23;20405;-79
2022/09/14 10:00:25;;;;;;;8.07;2.57;;;24.40;1.00;;;;;;6051137;23;20894;-84
2022/09/14 10:03:27;;;;;;;13.13;4.10;;;23.70;1.00;;;;;;6040116;23;20486;-78
2022/09/14 10:06:03;;;;;;;11.30;2.93;;;23.50;1.00;;;;;;6031012;23;20416;-77
2022/09/14 10:08:35;;;;;;;8.17;3.30;;;23.20;1.00;;;;;;6046419;23;20501;-77
2022/09/14 10:11:06;;;;;;;9.20;3.00;;;23.00;1.00;;;;;;6050863;23;20989;-78
2022/09/14 10:13:35;;;;;;;11.70;2.40;;;23.30;1.00;;;;;;6049101;23;20391;-78
2022/09/14 10:16:17;;;;;;;7.50;2.43;;;23.20;1.00;;;;;;6055692;23;20486;-77
2022/09/14 10:18:49;;;;;;;8.60;2.27;;;22.80;1.00;;;;;;6052280;23;20915;-82
2022/09/14 10:21:19;;;;;;;9.73;3.90;;;22.50;1.00;;;;;;6055277;23;20849;-78
2022/09/14 10:23:46;;;;;;;8.97;2.77;;;22.30;1.00;;;;;;6050933;23;20435;-78
2022/09/14 10:26:41;;;;;;;6.30;2.00;;;22.20;1.00;;;;;;6052238;23;20403;-79
2022/09/14 10:29:36;;;;;;;10.63;3.20;;;22.20;1.00;;;;;;6038342;23;20919;-81
2022/09/14 10:32:16;;;;;;;10.53;3.23;;;22.60;1.00;;;;;;6048466;23;20394;-79
2022/09/14 10:34:46;;;;;;;7.43;2.90;;;22.90;1.00;;;;;;6045990;23;20374;-80
2022/09/14 10:37:34;;;;;;;6.17;2.23;;;23.40;1.00;;;;;;6053363;23;20474;-78
2022/09/14 10:40:33;;;;;;;8.43;2.00;;;23.60;1.00;;;;;;6044324;23;20615;-82
2022/09/14 10:43:14;;;;;;;7.27;2.33;;;23.50;1.00;;;;;;6054467;23;20410;-86
2022/09/14 10:45:51;;;;;;;11.53;3.20;;;23.80;1.00;;;;;;6056856;23;20430;-86
2022/09/14 10:48:55;;;;;;;9.77;3.00;;;23.90;1.00;;;;;;6055354;23;20441;-85
2022/09/14 10:51:45;;;;;;;9.50;2.57;;;23.40;1.00;;;;;;6050636;23;20383;-79
2022/09/14 10:54:39;;;;;;;8.07;3.10;;;23.50;1.00;;;;;;6049721;23;20489;-80
2022/09/14 10:57:24;;;;;;;8.37;2.30;;;25.60;1.00;;;;;;6056214;23;20461;-79
2022/09/14 10:59:57;;;;;;;8.83;2.00;;;27.60;1.00;;;;;;6052761;23;20438;-80
2022/09/14 11:03:07;;;;;;;9.63;3.80;;;27.90;1.00;;;;;;6026495;23;20402;-80
2022/09/14 11:05:37;;;;;;;7.07;2.10;;;28.20;1.00;;;;;;6048552;23;20472;-80
2022/09/14 11:08:15;;;;;;;8.57;3.77;;;29.00;1.00;;;;;;6053260;23;20423;-79
2022/09/14 11:11:19;;;;;;;7.77;2.10;;;28.80;1.00;;;;;;6051941;23;20393;-80
2022/09/14 11:14:16;;;;;;;7.60;2.70;;;28.40;1.00;;;;;;6041102;23;20418;-81
2022/09/14 11:17:37;;;;;;;9.90;3.10;;;28.40;1.00;;;;;;6051026;23;20433;-80
2022/09/14 11:20:25;;;;;;;7.40;2.63;;;29.60;1.00;;;;;;6043592;23;20446;-76
2022/09/14 11:23:19;;;;;;;6.10;2.10;;;30.10;1.00;;;;;;6048467;23;20442;-80
2022/09/14 11:25:56;;;;;;;8.50;2.33;;;29.30;1.00;;;;;;6047419;23;20405;-80
2022/09/14 11:28:36;;;;;;;6.83;2.10;;;28.60;1.00;;;;;;6047232;23;20414;-78
2022/09/14 11:31:24;;;;;;;8.23;3.07;;;28.70;1.00;;;;;;6040548;23;20486;-78
2022/09/14 11:33:59;;;;;;;8.00;2.27;;;29.60;1.00;;;;;;6051300;23;20441;-85
2022/09/14 11:36:47;;;;;;;6.90;2.50;;;30.60;1.00;;;;;;6055367;23;20402;-79
2022/09/14 11:39:21;;;;;;;9.83;2.80;;;30.70;1.00;;;;;;6049700;23;20422;-79
2022/09/14 11:41:59;;;;;;;9.50;4.43;;;29.50;1.00;;;;;;6049695;23;21004;-79
2022/09/14 11:44:35;;;;;;;11.33;2.30;;;28.40;1.00;;;;;;6050296;23;20504;-83
2022/09/14 11:47:07;;;;;;;8.10;3.10;;;27.50;1.00;;;;;;6053228;23;20418;-78
2022/09/14 11:49:55;;;;;;;9.77;3.03;;;27.30;1.00;;;;;;6051547;23;20386;-80
2022/09/14 11:52:27;;;;;;;9.20;2.47;;;26.80;1.00;;;;;;6056181;23;20402;-83
2022/09/14 11:54:57;;;;;;;7.77;2.67;;;26.30;1.00;;;;;;6058802;23;20430;-83
2022/09/14 11:57:36;;;;;;;8.17;2.50;;;26.00;1.00;;;;;;6040594;23;20381;-83
2022/09/14 12:00:49;;;;;;;10.00;4.10;;;25.80;1.00;;;;;;6057387;23;20390;-81
2022/09/14 12:03:25;;;;;;;7.90;2.60;;;25.80;1.00;;;;;;6042494;23;20393;-82
2022/09/14 12:06:46;;;;;;;8.53;2.73;;;25.90;1.00;;;;;;6037202;23;21233;-79
2022/09/14 12:09:47;;;;;;;7.83;3.87;;;26.10;1.00;;;;;;6051365;23;20915;-81
2022/09/14 12:12:45;;;;;;;6.70;2.77;;;25.50;1.00;;;;;;6056351;23;20511;-80
2022/09/14 12:15:36;;;;;;;11.10;2.80;;;24.80;1.00;;;;;;6055548;23;20406;-81
2022/09/14 12:18:47;;;;;;;10.60;2.90;;;24.20;1.00;;;;;;6050482;23;20411;-81
2022/09/14 12:21:29;;;;;;;10.23;3.50;;;23.70;1.00;;;;;;5986860;23;20421;-80
2022/09/14 12:23:58;;;;;;;7.23;2.30;;;23.30;1.00;;;;;;6039066;23;20420;-80
2022/09/14 12:26:35;;;;;;;8.90;2.37;;;23.00;1.00;;;;;;6055804;23;20414;-80
2022/09/14 12:29:26;;;;;;;6.97;2.00;;;22.90;1.00;;;;;;6055839;23;20728;-81
2022/09/14 12:32:27;;;;;;;8.80;2.10;;;22.90;1.00;;;;;;6054086;23;20450;-80
2022/09/14 12:35:33;;;;;;;11.53;2.57;;;23.10;1.00;;;;;;6053612;23;20767;-79
2022/09/14 12:38:18;;;;;;;7.70;2.60;;;23.10;1.00;;;;;;6038525;23;20438;-78
2022/09/14 12:40:48;;;;;;;9.00;3.27;;;23.40;1.00;;;;;;6027277;23;20433;-82
2022/09/14 12:43:56;;;;;;;9.33;3.13;;;23.40;1.00;;;;;;6018898;23;20406;-84
2022/09/14 12:46:47;;;;;;;7.67;2.57;;;23.40;1.00;;;;;;6024603;23;20473;-81
2022/09/14 12:49:37;;;;;;;9.90;2.80;;;23.10;1.00;;;;;;6008197;23;20430;-79
2022/09/14 12:52:48;;;;;;;8.13;3.37;;;22.90;1.00;;;;;;6039454;23;20438;-79
2022/09/14 12:59:09;;;;;;;6.90;2.33;;;22.80;1.00;;;;;;6034263;23;20446;-80
2022/09/14 13:01:57;;;;;;;6.93;2.17;;;22.90;1.00;;;;;;6021622;23;21010;-80
2022/09/14 13:04:40;;;;;;;;;;;;;;;;;;;;;
2022/09/14 13:07:37;;;;;;;8.10;2.23;;;25.10;1.00;;;;;;6032893;23;40669;-80
2022/09/14 13:13:35;;;;;;;6.93;2.53;;;29.80;1.00;;;;;;6050405;23;20414;-83
2022/09/14 13:16:36;;;;;;;7.30;2.30;;;30.90;1.00;;;;;;6037968;23;20399;-83
2022/09/14 13:19:37;;;;;;;8.50;2.47;;;30.70;1.00;;;;;;6037859;23;20399;-82
2022/09/14 13:22:25;;;;;;;6.73;2.67;;;30.10;1.00;;;;;;6053238;23;20434;-82
2022/09/14 13:25:00;;;;;;;8.50;2.40;;;28.70;1.00;;;;;;6051608;23;20418;-81
2022/09/14 13:27:29;;;;;;;7.27;2.50;;;27.60;1.00;;;;;;6050349;23;20437;-80
2022/09/14 13:30:07;;;;;;;10.27;3.77;;;26.80;1.00;;;;;;6052088;23;20386;-81
2022/09/14 13:32:45;;;;;;;9.87;2.83;;;26.20;1.00;;;;;;6041191;23;20422;-79
2022/09/14 13:35:28;;;;;;;10.60;2.67;;;25.40;1.00;;;;;;6041097;23;20406;-79
2022/09/14 13:38:08;;;;;;;7.30;2.23;;;24.80;1.00;;;;;;6039759;23;20417;-78
2022/09/14 13:40:37;;;;;;;8.00;2.80;;;24.10;1.00;;;;;;6023067;23;20824;-78
2022/09/14 13:43:05;;;;;;;7.60;2.30;;;23.60;1.00;;;;;;6021398;23;20931;-78
2022/09/14 13:45:40;;;;;;;8.20;2.70;;;23.30;1.00;;;;;;6006830;23;20453;-78
2022/09/14 13:48:07;;;;;;;7.07;2.83;;;23.10;1.00;;;;;;6031443;23;20525;-78